GBYD/BJL METAR and TAF weather

Enter ICAO airport designator
Station Type Date Time Source
GBYD METAR 2020/09/22 06:00 UTC NOAA

GBYD 220600Z 00000KT 9999 SCT010 24/24 Q1013


Station Type Date Time Source
GBYD Decoded METAR 2020/09/22 06:00 UTC NOAA

Banjul / Yundum, Gambia, The (GBYD) 13-21N 016-48W 36M
Sep 22, 2020 - 02:00 AM EDT / 2020.09.22 0600 UTC
Wind: Calm:0
Visibility: greater than 7 mile(s):0
Sky conditions: partly cloudy
Temperature: 75 F (24 C)
Dew Point: 75 F (24 C)
Relative Humidity: 100%
Pressure (altimeter): 29.91 in. Hg (1013 hPa)
ob: GBYD 220600Z 00000KT 9999 SCT010 24/24 Q1013
cycle: 6

Station Type Date Time Source
GBYD TAF 2020/09/22 06:37 UTC NOAA

TAF GBYD 220530Z 2206/2312 31006KT 9999 SCT013

Example: see airport list